PAL2982 RPVA-RPLL
Flight info
| Callsign | PAL2982 |
|---|---|
| Flight time | N/A |
| Altitude | 34000 |
| Route | MALAG5R MALAG W9 AKDAP AKDAP1A |
| Aircraft | A321/M-SDE3FGHIRWY/LB1 |
Departure
| Time | 2026-04-30 18:40 |
|---|---|
| Airport | Daniel Z. Romualdez Airport (RPVA) |
Arrival
| Time | N/A |
|---|---|
| Airport | Ninoy Aquino International Airport (RPLL) |
| Time | Latitude | Longitude | Altitude | Speed | Heading |
|---|---|---|---|---|---|
| 2026-04-30 18:27 | 11.22634 | 125.02650 | 16 ft | 0 kts | 317° |
| 2026-04-30 18:33 | 11.22627 | 125.02661 | 16 ft | 2 kts | 279° |
| 2026-04-30 18:34 | 11.22628 | 125.02676 | 16 ft | 2 kts | 241° |
| 2026-04-30 18:34 | 11.22653 | 125.02690 | 16 ft | 2 kts | 175° |
| 2026-04-30 18:34 | 11.22663 | 125.02689 | 16 ft | 1 kts | 183° |
| 2026-04-30 18:37 | 11.22622 | 125.02687 | 16 ft | 8 kts | 183° |
| 2026-04-30 18:37 | 11.22576 | 125.02712 | 16 ft | 8 kts | 106° |
| 2026-04-30 18:37 | 11.22531 | 125.02763 | 16 ft | 15 kts | 170° |
| 2026-04-30 18:37 | 11.22416 | 125.02757 | 16 ft | 20 kts | 185° |
| 2026-04-30 18:38 | 11.22246 | 125.02743 | 17 ft | 28 kts | 184° |
| 2026-04-30 18:38 | 11.22034 | 125.02729 | 17 ft | 30 kts | 184° |
| 2026-04-30 18:38 | 11.21852 | 125.02735 | 18 ft | 14 kts | 161° |
| 2026-04-30 18:38 | 11.21823 | 125.02712 | 18 ft | 5 kts | 356° |
| 2026-04-30 18:39 | 11.21869 | 125.02715 | 18 ft | 6 kts | 2° |
| 2026-04-30 18:39 | 11.21872 | 125.02715 | 18 ft | 0 kts | 2° |
| 2026-04-30 18:39 | 11.22096 | 125.02727 | 17 ft | 73 kts | 3° |
| 2026-04-30 18:39 | 11.22881 | 125.02782 | 16 ft | 147 kts | 4° |
| 2026-04-30 18:40 | 11.24015 | 125.02857 | 404 ft | 173 kts | 3° |
| 2026-04-30 18:40 | 11.25189 | 125.02934 | 1201 ft | 174 kts | 3° |
| 2026-04-30 18:40 | 11.26383 | 125.03009 | 2020 ft | 173 kts | 4° |
| 2026-04-30 18:40 | 11.27597 | 125.03091 | 2481 ft | 181 kts | 4° |
| 2026-04-30 18:41 | 11.28894 | 125.03181 | 2795 ft | 197 kts | 4° |
| 2026-04-30 18:41 | 11.30326 | 125.03278 | 3116 ft | 214 kts | 4° |
| 2026-04-30 18:41 | 11.31870 | 125.03382 | 3366 ft | 237 kts | 3° |
| 2026-04-30 18:41 | 11.33578 | 125.03178 | 3705 ft | 259 kts | 338° |
| 2026-04-30 18:42 | 11.35089 | 125.02104 | 4307 ft | 269 kts | 316° |
| 2026-04-30 18:42 | 11.37750 | 124.99420 | 5890 ft | 275 kts | 315° |
| 2026-04-30 18:42 | 11.39112 | 124.98045 | 6656 ft | 278 kts | 315° |
| 2026-04-30 18:45 | 11.54366 | 124.82852 | 12558 ft | 349 kts | 315° |
| 2026-04-30 18:45 | 11.56112 | 124.81121 | 13195 ft | 352 kts | 316° |
| 2026-04-30 18:45 | 11.57933 | 124.79479 | 13810 ft | 355 kts | 321° |
| 2026-04-30 18:46 | 11.59907 | 124.77947 | 14423 ft | 358 kts | 325° |
| 2026-04-30 18:46 | 11.61956 | 124.76542 | 15019 ft | 361 kts | 327° |
| 2026-04-30 18:46 | 11.64066 | 124.75128 | 15610 ft | 364 kts | 327° |
| 2026-04-30 18:46 | 11.66201 | 124.73701 | 16189 ft | 367 kts | 327° |
| 2026-04-30 18:47 | 11.68315 | 124.72285 | 16747 ft | 370 kts | 327° |
| 2026-04-30 18:47 | 11.70486 | 124.70828 | 17304 ft | 373 kts | 327° |
| 2026-04-30 18:47 | 11.72636 | 124.69383 | 17840 ft | 376 kts | 327° |
| 2026-04-30 18:47 | 11.74835 | 124.67902 | 18372 ft | 379 kts | 327° |
| 2026-04-30 18:48 | 11.77040 | 124.66418 | 18889 ft | 382 kts | 327° |
| 2026-04-30 18:48 | 11.79240 | 124.64936 | 19390 ft | 385 kts | 327° |
| 2026-04-30 18:48 | 11.81479 | 124.63426 | 19884 ft | 387 kts | 327° |
| 2026-04-30 18:48 | 11.83712 | 124.61921 | 20362 ft | 390 kts | 327° |
| 2026-04-30 18:49 | 11.85986 | 124.60388 | 20834 ft | 393 kts | 327° |
| 2026-04-30 18:49 | 11.88277 | 124.58843 | 21296 ft | 396 kts | 327° |
| 2026-04-30 18:49 | 11.90553 | 124.57307 | 21743 ft | 398 kts | 327° |
| 2026-04-30 18:49 | 11.92876 | 124.55739 | 22183 ft | 401 kts | 327° |
| 2026-04-30 18:50 | 11.95207 | 124.54165 | 22614 ft | 403 kts | 327° |
| 2026-04-30 18:50 | 11.97529 | 124.52598 | 23040 ft | 405 kts | 327° |
| 2026-04-30 18:50 | 11.99888 | 124.51004 | 23465 ft | 407 kts | 327° |
| 2026-04-30 18:50 | 12.02266 | 124.49399 | 23882 ft | 409 kts | 327° |
| 2026-04-30 18:51 | 12.04615 | 124.47812 | 24274 ft | 411 kts | 327° |
| 2026-04-30 18:51 | 12.06974 | 124.46217 | 24646 ft | 414 kts | 327° |
| 2026-04-30 18:51 | 12.09413 | 124.44569 | 25015 ft | 416 kts | 327° |
| 2026-04-30 18:51 | 12.11526 | 124.43142 | 25322 ft | 418 kts | 327° |
| 2026-04-30 18:52 | 12.13943 | 124.41518 | 25661 ft | 421 kts | 327° |
| 2026-04-30 18:52 | 12.16414 | 124.39854 | 25995 ft | 423 kts | 327° |
| 2026-04-30 18:52 | 12.18853 | 124.38210 | 26320 ft | 426 kts | 327° |
| 2026-04-30 18:52 | 12.21335 | 124.36531 | 26654 ft | 428 kts | 327° |
| 2026-04-30 18:53 | 12.22983 | 124.35415 | 26871 ft | 429 kts | 327° |